createdAt,value
2023-03-11T00:00:37.945Z,3.10
2023-03-11T00:03:06.726Z,3.10
2023-03-11T00:05:40.266Z,3.10
2023-03-11T00:08:12.315Z,3.20
2023-03-11T00:10:42.401Z,3.20
2023-03-11T00:13:12.462Z,3.20
2023-03-11T00:15:41.066Z,3.20
2023-03-11T00:18:08.809Z,3.10
2023-03-11T00:20:38.674Z,3.10
2023-03-11T00:23:07.880Z,3.10
2023-03-11T00:25:37.064Z,3.10
2023-03-11T00:28:07.283Z,3.00
2023-03-11T00:30:34.908Z,3.00
2023-03-11T00:33:02.494Z,2.90
2023-03-11T00:35:32.007Z,2.80
2023-03-11T00:38:03.455Z,2.80
2023-03-11T00:40:33.131Z,2.80
2023-03-11T00:43:00.608Z,2.80
2023-03-11T00:45:28.757Z,2.80
2023-03-11T00:47:56.812Z,2.80
2023-03-11T00:50:28.131Z,2.70
2023-03-11T00:52:55.862Z,2.80
2023-03-11T00:55:25.955Z,2.70
2023-03-11T00:57:55.663Z,2.70
2023-03-11T01:00:24.522Z,2.70
2023-03-11T01:02:54.165Z,2.70
2023-03-11T01:05:25.411Z,2.60
2023-03-11T01:07:52.960Z,2.60
2023-03-11T01:10:20.803Z,2.60
2023-03-11T01:12:48.531Z,2.60
2023-03-11T01:15:34.741Z,2.50
2023-03-11T01:18:03.272Z,2.60
2023-03-11T01:20:31.817Z,2.50
2023-03-11T01:22:59.211Z,2.50
2023-03-11T01:25:26.925Z,2.50
2023-03-11T01:27:54.602Z,2.50
2023-03-11T01:30:24.187Z,2.50
2023-03-11T01:32:53.671Z,2.50
2023-03-11T01:35:24.600Z,2.40
2023-03-11T01:37:53.012Z,2.40
2023-03-11T01:40:36.007Z,2.30
2023-03-11T01:43:05.650Z,2.30
2023-03-11T01:46:02.492Z,2.20
2023-03-11T01:48:30.018Z,2.20
2023-03-11T01:50:57.906Z,2.20
2023-03-11T01:53:25.811Z,2.30
2023-03-11T01:55:53.648Z,2.30
2023-03-11T01:58:25.355Z,2.30
2023-03-11T02:00:53.874Z,2.30
2023-03-11T02:03:41.907Z,2.30
2023-03-11T02:06:21.859Z,2.30
2023-03-11T02:08:51.561Z,2.30
2023-03-11T02:11:24.936Z,2.30
2023-03-11T02:13:56.454Z,2.30
2023-03-11T02:16:23.729Z,2.30
2023-03-11T02:18:51.212Z,2.30
2023-03-11T02:21:26.573Z,2.30
2023-03-11T02:24:10.412Z,2.20
2023-03-11T02:26:41.661Z,2.20
2023-03-11T02:29:11.334Z,2.10
2023-03-11T02:31:43.134Z,2.20
2023-03-11T02:34:20.189Z,2.10
2023-03-11T02:36:47.783Z,2.10
2023-03-11T02:39:15.071Z,2.00
2023-03-11T02:41:46.609Z,2.00
2023-03-11T02:44:16.480Z,2.00
2023-03-11T02:46:44.551Z,2.00
2023-03-11T02:49:12.950Z,1.90
2023-03-11T02:51:40.503Z,1.90
2023-03-11T02:54:07.903Z,1.90
2023-03-11T02:56:35.542Z,1.90
2023-03-11T02:59:03.697Z,1.80
2023-03-11T03:01:31.453Z,1.80
2023-03-11T03:03:58.986Z,1.70
2023-03-11T03:06:28.651Z,1.70
2023-03-11T03:08:56.631Z,1.70
2023-03-11T03:11:24.203Z,1.60
2023-03-11T03:13:51.872Z,1.60
2023-03-11T03:16:19.539Z,1.50
2023-03-11T03:18:47.058Z,1.50
2023-03-11T03:21:14.546Z,1.50
2023-03-11T03:23:42.048Z,1.60
2023-03-11T03:26:13.943Z,1.60
2023-03-11T03:28:41.262Z,1.60
2023-03-11T03:31:09.956Z,1.60
2023-03-11T03:33:38.004Z,1.60
2023-03-11T03:36:10.967Z,1.60
2023-03-11T03:38:38.536Z,1.50
2023-03-11T03:41:06.242Z,1.50
2023-03-11T03:43:33.822Z,1.50
2023-03-11T03:46:04.276Z,1.50
2023-03-11T03:48:32.090Z,1.40
2023-03-11T03:51:08.013Z,1.40
2023-03-11T03:53:36.419Z,1.40
2023-03-11T03:56:10.063Z,1.50
2023-03-11T03:58:38.217Z,1.50
2023-03-11T04:01:06.709Z,1.50
2023-03-11T04:03:35.933Z,1.50
2023-03-11T04:06:15.803Z,1.50
2023-03-11T04:08:43.620Z,1.50
2023-03-11T04:11:11.096Z,1.60
2023-03-11T04:13:38.711Z,1.60
2023-03-11T04:16:07.658Z,1.60
2023-03-11T04:18:35.411Z,1.60
2023-03-11T04:21:06.814Z,1.60
2023-03-11T04:23:34.811Z,1.60
2023-03-11T04:26:02.208Z,1.60
2023-03-11T04:28:29.486Z,1.60
2023-03-11T04:30:57.404Z,1.60
2023-03-11T04:33:25.166Z,1.60
2023-03-11T04:35:52.626Z,1.70
2023-03-11T04:38:20.197Z,1.70
2023-03-11T04:40:47.600Z,1.70
2023-03-11T04:43:14.953Z,1.80
2023-03-11T04:45:42.692Z,1.80
2023-03-11T04:48:10.260Z,1.80
2023-03-11T04:50:37.797Z,1.80
2023-03-11T04:53:05.249Z,1.90
2023-03-11T04:55:33.390Z,1.90
2023-03-11T04:58:00.895Z,1.90
2023-03-11T05:00:28.542Z,2.00
2023-03-11T05:02:56.063Z,2.00
2023-03-11T05:05:24.003Z,2.00
2023-03-11T05:07:51.554Z,2.00
2023-03-11T05:10:24.958Z,2.10
2023-03-11T05:12:52.958Z,2.10
2023-03-11T05:15:20.594Z,2.10
2023-03-11T05:17:48.193Z,2.10
2023-03-11T05:20:16.620Z,2.10
2023-03-11T05:22:44.057Z,2.10
2023-03-11T05:25:11.697Z,2.10
2023-03-11T05:27:39.199Z,2.10
2023-03-11T05:30:07.650Z,2.10
2023-03-11T05:32:35.372Z,2.10
2023-03-11T05:35:03.049Z,2.10
2023-03-11T05:37:32.395Z,2.10
2023-03-11T05:39:59.755Z,2.10
2023-03-11T05:42:27.334Z,2.10
2023-03-11T05:44:54.802Z,2.10
2023-03-11T05:47:22.514Z,2.10
2023-03-11T05:49:50.154Z,2.10
2023-03-11T05:52:18.007Z,2.10
2023-03-11T05:54:45.549Z,2.10
2023-03-11T05:57:12.977Z,2.10
2023-03-11T05:59:40.239Z,2.20
2023-03-11T06:02:07.854Z,2.20
2023-03-11T06:04:35.572Z,2.20
2023-03-11T06:07:03.819Z,2.10
2023-03-11T06:09:31.397Z,2.10
2023-03-11T06:11:58.840Z,2.10
2023-03-11T06:14:28.891Z,2.10
2023-03-11T06:16:56.447Z,2.10
2023-03-11T06:19:24.042Z,2.20
2023-03-11T06:21:52.135Z,2.10
2023-03-11T06:24:19.752Z,2.20
2023-03-11T06:26:50.744Z,2.20
2023-03-11T06:29:18.551Z,2.20
2023-03-11T06:31:45.994Z,2.20
2023-03-11T06:34:13.335Z,2.20
2023-03-11T06:36:41.041Z,2.60
2023-03-11T06:39:09.377Z,2.70
2023-03-11T06:41:36.642Z,2.50
2023-03-11T06:44:05.013Z,2.40
2023-03-11T06:46:32.585Z,2.40
2023-03-11T06:49:00.155Z,2.30
2023-03-11T06:51:28.058Z,2.30
2023-03-11T06:53:55.741Z,2.40
2023-03-11T06:56:23.698Z,2.40
2023-03-11T06:58:51.140Z,2.40
2023-03-11T07:01:21.861Z,2.40
2023-03-11T07:03:50.419Z,2.40
2023-03-11T07:06:21.942Z,2.40
2023-03-11T07:08:51.509Z,2.40
2023-03-11T07:11:24.699Z,2.50
2023-03-11T07:13:53.244Z,2.50
2023-03-11T07:16:24.170Z,2.40
2023-03-11T07:18:53.091Z,2.40
2023-03-11T07:21:23.040Z,2.40
2023-03-11T07:23:55.335Z,2.50
2023-03-11T07:26:23.747Z,2.50
2023-03-11T07:28:52.870Z,2.50
2023-03-11T07:31:26.123Z,2.60
2023-03-11T07:33:54.389Z,2.60
2023-03-11T07:36:24.394Z,2.60
2023-03-11T07:39:04.765Z,2.70
2023-03-11T07:41:34.243Z,2.70
2023-03-11T07:44:04.729Z,2.80
2023-03-11T07:46:33.292Z,2.80
2023-03-11T07:49:02.542Z,2.90
2023-03-11T07:51:32.800Z,2.90
2023-03-11T07:54:01.919Z,3.00
2023-03-11T07:56:32.672Z,3.00
2023-03-11T07:59:02.004Z,3.00
2023-03-11T08:01:36.439Z,3.00
2023-03-11T08:04:06.450Z,3.10
2023-03-11T08:06:35.541Z,3.10
2023-03-11T08:09:06.692Z,3.20
2023-03-11T08:11:43.647Z,3.20
2023-03-11T08:14:11.578Z,3.20
2023-03-11T08:16:44.305Z,3.20
2023-03-11T08:19:13.047Z,3.30
2023-03-11T08:21:40.784Z,3.40
2023-03-11T08:24:10.927Z,3.50
2023-03-11T08:26:38.739Z,3.50
2023-03-11T08:29:06.990Z,3.50
2023-03-11T08:31:35.370Z,3.60
2023-03-11T08:34:09.458Z,3.60
2023-03-11T08:36:37.352Z,3.70
2023-03-11T08:39:05.193Z,3.70
2023-03-11T08:41:33.150Z,3.80
2023-03-11T08:44:01.300Z,3.80
2023-03-11T08:46:34.879Z,3.80
2023-03-11T08:49:03.287Z,3.70
2023-03-11T08:51:33.297Z,3.80
2023-03-11T08:54:04.271Z,3.80
2023-03-11T08:56:31.838Z,4.00
2023-03-11T08:59:03.083Z,4.10
2023-03-11T09:01:30.733Z,4.10
2023-03-11T09:03:58.523Z,4.20
2023-03-11T09:06:26.740Z,4.30
2023-03-11T09:08:54.038Z,4.40
2023-03-11T09:11:22.663Z,4.30
2023-03-11T09:13:50.645Z,4.40
2023-03-11T09:16:21.685Z,4.30
2023-03-11T09:18:49.677Z,4.30
2023-03-11T09:21:20.170Z,4.40
2023-03-11T09:23:48.787Z,4.40
2023-03-11T09:26:16.456Z,4.40
2023-03-11T09:28:52.051Z,4.40
2023-03-11T09:31:19.865Z,4.60
2023-03-11T09:33:48.067Z,4.60
2023-03-11T09:36:18.024Z,4.50
2023-03-11T09:38:46.029Z,4.50
2023-03-11T09:41:24.040Z,4.70
2023-03-11T09:44:00.492Z,4.80
2023-03-11T09:46:40.785Z,4.80
2023-03-11T09:49:31.331Z,4.90
2023-03-11T09:52:10.346Z,4.90
2023-03-11T09:54:41.939Z,4.90
2023-03-11T09:57:23.999Z,5.00
2023-03-11T09:59:51.972Z,5.00
2023-03-11T10:02:26.651Z,5.00
2023-03-11T10:05:24.635Z,5.10
2023-03-11T10:08:00.582Z,5.20
2023-03-11T10:10:34.786Z,5.40
2023-03-11T10:13:15.087Z,5.40
2023-03-11T10:16:01.031Z,5.50
2023-03-11T10:18:50.544Z,5.60
2023-03-11T10:21:29.816Z,5.60
2023-03-11T10:24:14.476Z,5.50
2023-03-11T10:26:43.478Z,5.60
2023-03-11T10:29:20.292Z,5.70
2023-03-11T10:31:57.630Z,5.80
2023-03-11T10:34:43.848Z,6.00
2023-03-11T10:37:47.982Z,6.10
2023-03-11T10:40:30.283Z,6.20
2023-03-11T10:43:00.256Z,6.20
2023-03-11T10:45:31.584Z,6.30
2023-03-11T10:47:59.189Z,6.30
2023-03-11T10:50:27.045Z,6.20
2023-03-11T10:53:15.877Z,6.20
2023-03-11T10:55:54.685Z,6.30
2023-03-11T10:58:28.387Z,6.50
2023-03-11T11:01:12.606Z,6.50
2023-03-11T11:03:50.339Z,6.60
2023-03-11T11:06:27.212Z,6.80
2023-03-11T11:09:17.943Z,6.80
2023-03-11T11:12:21.104Z,6.70
2023-03-11T11:14:52.760Z,6.90
2023-03-11T11:17:32.683Z,7.10
2023-03-11T11:20:12.965Z,7.10
2023-03-11T11:22:51.101Z,7.10
2023-03-11T11:25:37.987Z,7.10
2023-03-11T11:28:16.083Z,7.10
2023-03-11T11:31:01.649Z,7.20
2023-03-11T11:33:34.143Z,7.20
2023-03-11T11:36:04.382Z,7.20
2023-03-11T11:38:33.364Z,7.20
2023-03-11T11:41:03.824Z,7.30
2023-03-11T11:43:59.167Z,7.30
2023-03-11T11:46:38.646Z,7.30
2023-03-11T11:49:08.993Z,7.50
2023-03-11T11:52:06.032Z,7.40
2023-03-11T11:54:42.776Z,7.40
2023-03-11T11:57:19.709Z,7.50
2023-03-11T11:59:47.884Z,7.30
2023-03-11T12:02:37.484Z,7.40
2023-03-11T12:05:44.648Z,7.50
2023-03-11T12:08:41.726Z,7.90
2023-03-11T12:11:26.064Z,8.30
2023-03-11T12:14:03.180Z,8.50
2023-03-11T12:16:51.968Z,8.70
2023-03-11T12:19:42.078Z,9.10
2023-03-11T12:22:15.375Z,8.90
2023-03-11T12:25:17.625Z,8.70
2023-03-11T12:27:51.154Z,8.70
2023-03-11T12:30:45.220Z,9.00
2023-03-11T12:33:33.998Z,9.40
2023-03-11T12:36:03.371Z,9.70
2023-03-11T12:38:45.823Z,9.80
2023-03-11T12:41:15.932Z,9.80
2023-03-11T12:43:43.430Z,9.60
2023-03-11T12:46:13.688Z,9.60
2023-03-11T12:49:07.380Z,9.60
2023-03-11T12:51:35.021Z,9.40
2023-03-11T12:54:22.544Z,9.20
2023-03-11T12:57:06.276Z,8.80
2023-03-11T12:59:55.237Z,8.80
2023-03-11T13:02:44.548Z,8.90
2023-03-11T13:05:29.727Z,9.40
2023-03-11T13:08:14.582Z,9.80
2023-03-11T13:10:55.400Z,9.60
2023-03-11T13:13:32.503Z,9.90
2023-03-11T13:16:15.306Z,9.80
2023-03-11T13:18:48.393Z,9.50
2023-03-11T13:21:28.107Z,9.30
2023-03-11T13:24:25.865Z,9.20
2023-03-11T13:27:00.471Z,8.90
2023-03-11T13:29:40.887Z,8.80
2023-03-11T13:32:17.192Z,8.70
2023-03-11T13:35:22.338Z,8.70
2023-03-11T13:38:17.341Z,8.80
2023-03-11T13:40:46.550Z,8.80
2023-03-11T13:43:24.034Z,8.80
2023-03-11T13:46:14.539Z,8.60
2023-03-11T13:48:48.134Z,8.50
2023-03-11T13:51:25.085Z,8.60
2023-03-11T13:53:59.801Z,8.60
2023-03-11T13:56:31.439Z,8.60
2023-03-11T13:59:24.283Z,8.60
2023-03-11T14:01:53.382Z,8.80
2023-03-11T14:04:28.399Z,8.70
2023-03-11T14:06:56.281Z,8.60
2023-03-11T14:09:26.244Z,8.60
2023-03-11T14:11:54.944Z,8.70
2023-03-11T14:15:14.339Z,8.80
2023-03-11T14:17:41.968Z,8.80
2023-03-11T14:20:23.701Z,8.70
2023-03-11T14:22:56.130Z,8.60
2023-03-11T14:25:27.471Z,8.70
2023-03-11T14:27:56.389Z,8.60
2023-03-11T14:30:30.371Z,8.60
2023-03-11T14:33:02.129Z,8.60
2023-03-11T14:35:31.166Z,8.50
2023-03-11T14:37:59.213Z,8.50
2023-03-11T14:40:32.671Z,8.50
2023-03-11T14:43:03.784Z,8.60
2023-03-11T14:45:33.472Z,8.70
2023-03-11T14:48:23.013Z,8.70
2023-03-11T14:50:50.895Z,8.60
2023-03-11T14:53:21.483Z,8.50
2023-03-11T14:55:59.277Z,8.50
2023-03-11T14:58:37.218Z,8.40
2023-03-11T15:01:07.439Z,8.30
2023-03-11T15:03:39.604Z,8.40
2023-03-11T15:06:10.130Z,8.40
2023-03-11T15:08:51.561Z,8.30
2023-03-11T15:11:25.281Z,8.20
2023-03-11T15:13:53.590Z,8.10
2023-03-11T15:16:28.782Z,8.00
2023-03-11T15:18:56.661Z,8.00
2023-03-11T15:21:25.072Z,8.10
2023-03-11T15:24:02.623Z,8.10
2023-03-11T15:26:32.128Z,8.10
2023-03-11T15:29:13.273Z,8.20
2023-03-11T15:31:44.669Z,8.10
2023-03-11T15:34:18.347Z,8.10
2023-03-11T15:36:57.333Z,8.10
2023-03-11T15:39:30.990Z,8.00
2023-03-11T15:42:03.633Z,8.00
2023-03-11T15:44:41.320Z,8.10
2023-03-11T15:47:20.523Z,8.00
2023-03-11T15:49:48.684Z,8.00
2023-03-11T15:52:17.284Z,8.00
2023-03-11T15:54:54.740Z,8.00
2023-03-11T15:57:27.328Z,7.90
2023-03-11T15:59:57.313Z,7.80
2023-03-11T16:02:26.882Z,7.70
2023-03-11T16:04:55.015Z,7.60
2023-03-11T16:07:38.050Z,7.60
2023-03-11T16:10:08.213Z,7.60
2023-03-11T16:12:36.080Z,7.60
2023-03-11T16:15:05.081Z,7.60
2023-03-11T16:17:48.406Z,7.60
2023-03-11T16:20:17.474Z,7.50
2023-03-11T16:22:46.478Z,7.40
2023-03-11T16:25:21.784Z,7.40
2023-03-11T16:27:51.569Z,7.40
2023-03-11T16:30:20.384Z,7.50
2023-03-11T16:32:47.975Z,7.40
2023-03-11T16:35:15.573Z,7.40
2023-03-11T16:37:43.717Z,7.40
2023-03-11T16:40:17.974Z,7.40
2023-03-11T16:42:46.597Z,7.40
2023-03-11T16:45:16.226Z,7.40
2023-03-11T16:47:44.023Z,7.50
2023-03-11T16:50:12.337Z,7.50
2023-03-11T16:52:39.925Z,7.40
2023-03-11T16:55:08.110Z,7.30
2023-03-11T16:57:35.463Z,7.30
2023-03-11T17:00:05.484Z,7.30
2023-03-11T17:02:33.479Z,7.30
2023-03-11T17:05:01.019Z,7.30
2023-03-11T17:07:28.633Z,7.30
2023-03-11T17:09:57.221Z,7.20
2023-03-11T17:12:25.879Z,7.20
2023-03-11T17:14:54.065Z,7.10
2023-03-11T17:17:22.173Z,7.00
2023-03-11T17:19:49.771Z,7.00
2023-03-11T17:22:17.598Z,6.80
2023-03-11T17:24:45.061Z,6.50
2023-03-11T17:27:13.125Z,6.40
2023-03-11T17:29:40.473Z,6.20
2023-03-11T17:32:08.379Z,6.10
2023-03-11T17:34:35.926Z,5.90
2023-03-11T17:37:03.409Z,5.90
2023-03-11T17:39:30.772Z,5.80
2023-03-11T17:41:58.520Z,5.70
2023-03-11T17:44:28.894Z,5.70
2023-03-11T17:46:57.772Z,5.70
2023-03-11T17:49:25.170Z,5.80
2023-03-11T17:51:52.655Z,5.60
2023-03-11T17:54:20.108Z,5.40
2023-03-11T17:56:47.625Z,5.30
2023-03-11T17:59:16.504Z,5.20
2023-03-11T18:01:45.275Z,5.20
2023-03-11T18:04:12.971Z,5.20
2023-03-11T18:06:40.426Z,5.30
2023-03-11T18:09:07.665Z,5.20
2023-03-11T18:11:35.263Z,5.30
2023-03-11T18:14:02.920Z,5.20
2023-03-11T18:16:31.913Z,5.20
2023-03-11T18:18:59.412Z,5.30
2023-03-11T18:21:30.003Z,5.20
2023-03-11T18:24:00.227Z,5.20
2023-03-11T18:26:29.455Z,5.20
2023-03-11T18:28:59.290Z,5.20
2023-03-11T18:31:30.469Z,5.10
2023-03-11T18:34:05.011Z,5.10
2023-03-11T18:36:35.922Z,5.20
2023-03-11T18:39:04.872Z,5.20
2023-03-11T18:41:35.057Z,5.10
2023-03-11T18:44:02.755Z,5.00
2023-03-11T18:46:32.356Z,5.00
2023-03-11T18:49:02.126Z,5.00
2023-03-11T18:51:31.517Z,5.00
2023-03-11T18:54:00.563Z,5.00
2023-03-11T18:56:31.060Z,5.00
2023-03-11T18:58:59.519Z,4.90
2023-03-11T19:01:27.644Z,4.80
2023-03-11T19:03:57.556Z,4.80
2023-03-11T19:06:27.221Z,4.80
2023-03-11T19:08:55.117Z,4.70
2023-03-11T19:11:24.341Z,4.80
2023-03-11T19:13:52.486Z,4.80
2023-03-11T19:16:23.650Z,4.60
2023-03-11T19:18:51.614Z,4.40
2023-03-11T19:21:18.974Z,4.40
2023-03-11T19:23:46.870Z,4.40
2023-03-11T19:26:14.675Z,4.40
2023-03-11T19:28:42.274Z,4.50
2023-03-11T19:31:09.998Z,4.50
2023-03-11T19:33:37.668Z,4.50
2023-03-11T19:36:06.869Z,4.50
2023-03-11T19:38:35.527Z,4.50
2023-03-11T19:41:08.795Z,4.70
2023-03-11T19:43:36.715Z,4.70
2023-03-11T19:46:06.637Z,4.60
2023-03-11T19:48:34.495Z,4.60
2023-03-11T19:51:05.823Z,4.70
2023-03-11T19:53:34.821Z,4.50
2023-03-11T19:56:04.758Z,4.40
2023-03-11T19:58:33.011Z,4.40
2023-03-11T20:01:02.247Z,4.40
2023-03-11T20:03:30.994Z,4.50
2023-03-11T20:06:06.839Z,4.60
2023-03-11T20:08:37.334Z,4.70
2023-03-11T20:11:06.755Z,4.70
2023-03-11T20:13:36.874Z,4.70
2023-03-11T20:16:10.177Z,4.70
2023-03-11T20:18:38.122Z,4.70
2023-03-11T20:21:11.571Z,4.60
2023-03-11T20:23:40.557Z,4.60
2023-03-11T20:26:14.053Z,4.60
2023-03-11T20:28:56.339Z,4.60
2023-03-11T20:31:25.364Z,4.60
2023-03-11T20:33:54.371Z,4.50
2023-03-11T20:36:25.180Z,4.60
2023-03-11T20:38:55.950Z,4.70
2023-03-11T20:41:25.765Z,4.60
2023-03-11T20:43:55.702Z,4.70
2023-03-11T20:46:25.987Z,4.70
2023-03-11T20:48:54.070Z,4.80
2023-03-11T20:51:23.201Z,4.90
2023-03-11T20:53:51.590Z,4.90
2023-03-11T20:56:22.340Z,4.90
2023-03-11T20:58:51.458Z,4.80
2023-03-11T21:01:25.390Z,4.90
2023-03-11T21:03:54.851Z,4.90
2023-03-11T21:06:29.627Z,4.90
2023-03-11T21:08:58.974Z,4.90
2023-03-11T21:11:27.154Z,5.10
2023-03-11T21:13:55.759Z,5.10
2023-03-11T21:16:24.461Z,5.00
2023-03-11T21:18:52.048Z,5.00
2023-03-11T21:21:20.289Z,5.00
2023-03-11T21:23:48.557Z,5.00
2023-03-11T21:26:17.585Z,5.00
2023-03-11T21:28:47.149Z,5.00
2023-03-11T21:31:18.194Z,5.00
2023-03-11T21:33:47.630Z,5.10
2023-03-11T21:36:17.527Z,5.20
2023-03-11T21:38:50.136Z,5.30
2023-03-11T21:41:25.318Z,5.40
2023-03-11T21:43:55.472Z,5.70
2023-03-11T21:46:26.788Z,5.60
2023-03-11T21:48:54.988Z,5.50
2023-03-11T21:51:23.306Z,5.50
2023-03-11T21:53:50.821Z,5.50
2023-03-11T21:56:18.987Z,5.50
2023-03-11T21:58:46.696Z,5.60
2023-03-11T22:01:15.933Z,5.50
2023-03-11T22:03:43.968Z,5.40
2023-03-11T22:06:12.723Z,5.50
2023-03-11T22:08:41.413Z,5.50
2023-03-11T22:11:17.663Z,5.50
2023-03-11T22:13:47.270Z,5.50
2023-03-11T22:16:15.609Z,5.50
2023-03-11T22:18:43.674Z,5.50
2023-03-11T22:21:11.579Z,5.50
2023-03-11T22:23:39.006Z,5.60
2023-03-11T22:26:06.408Z,5.70
2023-03-11T22:28:34.318Z,5.70
2023-03-11T22:31:07.211Z,5.70
2023-03-11T22:33:35.408Z,5.70
2023-03-11T22:36:05.015Z,5.70
2023-03-11T22:38:35.742Z,5.70
2023-03-11T22:41:07.899Z,5.80
2023-03-11T22:43:36.816Z,5.70
2023-03-11T22:46:05.758Z,5.90
2023-03-11T22:48:34.383Z,5.80
2023-03-11T22:51:02.262Z,5.90
2023-03-11T22:53:30.646Z,5.90
2023-03-11T22:55:58.306Z,5.90
2023-03-11T22:58:26.071Z,6.00
2023-03-11T23:00:53.657Z,5.90
2023-03-11T23:03:21.456Z,5.90
2023-03-11T23:05:49.055Z,5.90
2023-03-11T23:08:18.509Z,5.90
2023-03-11T23:10:47.436Z,5.90
2023-03-11T23:13:15.560Z,5.90
2023-03-11T23:15:44.913Z,5.90
2023-03-11T23:18:13.664Z,5.90
2023-03-11T23:20:42.460Z,5.90
2023-03-11T23:23:11.057Z,6.00
2023-03-11T23:25:39.951Z,6.00
2023-03-11T23:28:07.977Z,6.10
2023-03-11T23:30:35.750Z,6.10
2023-03-11T23:33:03.515Z,6.10
2023-03-11T23:35:31.716Z,6.20
2023-03-11T23:37:59.847Z,6.20
2023-03-11T23:40:27.878Z,6.20
2023-03-11T23:42:55.352Z,6.30
2023-03-11T23:45:23.076Z,6.30
2023-03-11T23:47:50.710Z,6.30
2023-03-11T23:50:18.554Z,6.30
2023-03-11T23:52:46.355Z,6.40
2023-03-11T23:55:13.997Z,6.40
2023-03-11T23:57:41.275Z,6.40
